createdAt,value
2018-03-26T00:00:41.168Z,96.50
2018-03-26T00:03:09.083Z,96.20
2018-03-26T00:05:36.621Z,96.40
2018-03-26T00:08:04.301Z,96.00
2018-03-26T00:10:31.861Z,96.10
2018-03-26T00:12:59.635Z,96.10
2018-03-26T00:15:27.238Z,95.70
2018-03-26T00:17:54.954Z,96.80
2018-03-26T00:20:22.595Z,95.80
2018-03-26T00:22:50.073Z,95.80
2018-03-26T00:25:17.684Z,95.80
2018-03-26T00:27:45.210Z,96.00
2018-03-26T00:30:13.503Z,95.70
2018-03-26T00:32:41.003Z,95.60
2018-03-26T00:35:09.305Z,96.00
2018-03-26T00:37:37.694Z,95.90
2018-03-26T00:40:06.074Z,95.70
2018-03-26T00:42:34.650Z,95.90
2018-03-26T00:45:02.217Z,95.60
2018-03-26T00:47:29.778Z,95.50
2018-03-26T00:49:57.438Z,95.50
2018-03-26T00:52:25.833Z,96.00
2018-03-26T00:54:54.278Z,95.80
2018-03-26T00:57:21.854Z,95.80
2018-03-26T00:59:49.418Z,96.10
2018-03-26T01:02:16.978Z,96.00
2018-03-26T01:04:45.367Z,96.30
2018-03-26T01:07:13.638Z,96.20
2018-03-26T01:09:42.561Z,96.50
2018-03-26T01:12:10.087Z,96.50
2018-03-26T01:14:37.641Z,96.30
2018-03-26T01:17:05.262Z,96.60
2018-03-26T01:19:32.776Z,96.70
2018-03-26T01:22:01.248Z,95.90
2018-03-26T01:24:28.729Z,95.80
2018-03-26T01:26:57.052Z,96.30
2018-03-26T01:29:24.749Z,96.20
2018-03-26T01:31:52.346Z,96.30
2018-03-26T01:34:19.826Z,96.40
2018-03-26T01:36:47.622Z,96.50
2018-03-26T01:39:15.153Z,96.10
2018-03-26T01:41:42.625Z,96.60
2018-03-26T01:44:10.099Z,96.50
2018-03-26T01:46:37.635Z,96.30
2018-03-26T01:49:05.173Z,96.60
2018-03-26T01:51:32.717Z,96.70
2018-03-26T01:54:00.233Z,96.30
2018-03-26T01:56:27.797Z,96.60
2018-03-26T01:58:56.074Z,96.20
2018-03-26T02:01:24.014Z,96.30
2018-03-26T02:03:51.598Z,96.20
2018-03-26T02:06:19.261Z,96.00
2018-03-26T02:08:47.747Z,96.10
2018-03-26T02:11:16.335Z,96.10
2018-03-26T02:13:44.089Z,96.10
2018-03-26T02:16:11.663Z,96.60
2018-03-26T02:18:39.902Z,96.40
2018-03-26T02:21:07.385Z,96.40
2018-03-26T02:23:34.913Z,96.70
2018-03-26T02:26:02.516Z,96.60
2018-03-26T02:28:30.758Z,96.20
2018-03-26T02:30:58.227Z,96.20
2018-03-26T02:33:25.739Z,96.20
2018-03-26T02:35:53.260Z,96.40
2018-03-26T02:38:20.822Z,96.50
2018-03-26T02:40:48.382Z,96.70
2018-03-26T02:43:16.617Z,97.20
2018-03-26T02:45:44.096Z,96.90
2018-03-26T02:48:11.773Z,96.60
2018-03-26T02:50:39.446Z,96.70
2018-03-26T02:53:06.893Z,96.70
2018-03-26T02:55:35.140Z,97.20
2018-03-26T02:58:02.662Z,96.90
2018-03-26T03:00:30.290Z,96.80
2018-03-26T03:02:57.839Z,96.70
2018-03-26T03:05:25.418Z,96.90
2018-03-26T03:07:53.659Z,96.80
2018-03-26T03:10:21.268Z,96.60
2018-03-26T03:12:49.530Z,96.70
2018-03-26T03:15:17.095Z,96.70
2018-03-26T03:17:46.017Z,97.00
2018-03-26T03:20:13.536Z,97.30
2018-03-26T03:22:41.397Z,96.90
2018-03-26T03:25:08.967Z,96.90
2018-03-26T03:27:36.726Z,96.80
2018-03-26T03:30:05.032Z,97.30
2018-03-26T03:32:32.979Z,97.20
2018-03-26T03:35:00.548Z,97.40
2018-03-26T03:37:28.809Z,97.60
2018-03-26T03:39:56.580Z,97.60
2018-03-26T03:42:24.237Z,97.50
2018-03-26T03:44:51.894Z,97.30
2018-03-26T03:47:19.562Z,97.60
2018-03-26T03:49:47.129Z,97.70
2018-03-26T03:52:15.389Z,97.70
2018-03-26T03:54:42.958Z,97.70
2018-03-26T03:57:10.509Z,97.50
2018-03-26T03:59:38.076Z,97.40
2018-03-26T04:02:06.373Z,97.10
2018-03-26T04:04:34.634Z,97.20
2018-03-26T04:07:02.906Z,97.40
2018-03-26T04:09:31.177Z,97.70
2018-03-26T04:11:58.733Z,97.70
2018-03-26T04:14:26.298Z,97.60
2018-03-26T04:16:53.853Z,97.50
2018-03-26T04:19:21.417Z,97.40
2018-03-26T04:21:49.172Z,97.80
2018-03-26T04:24:16.752Z,97.70
2018-03-26T04:26:45.014Z,97.60
2018-03-26T04:29:12.578Z,97.60
2018-03-26T04:31:40.826Z,97.60
2018-03-26T04:34:08.617Z,97.60
2018-03-26T04:36:36.082Z,97.60
2018-03-26T04:39:04.326Z,97.60
2018-03-26T04:41:31.926Z,97.60
2018-03-26T04:44:00.190Z,97.70
2018-03-26T04:46:27.960Z,97.60
2018-03-26T04:48:55.714Z,97.50
2018-03-26T04:51:23.378Z,97.80
2018-03-26T04:53:50.946Z,97.80
2018-03-26T04:56:19.327Z,98.10
2018-03-26T04:58:47.754Z,98.30
2018-03-26T05:01:15.316Z,98.00
2018-03-26T05:03:43.023Z,98.30
2018-03-26T05:06:10.500Z,98.10
2018-03-26T05:08:38.757Z,98.10
2018-03-26T05:11:06.238Z,98.10
2018-03-26T05:13:34.593Z,98.30
2018-03-26T05:16:03.884Z,98.20
2018-03-26T05:18:31.459Z,98.20
2018-03-26T05:20:59.034Z,98.10
2018-03-26T05:23:26.526Z,98.40
2018-03-26T05:25:54.009Z,98.40
2018-03-26T05:28:21.474Z,98.10
2018-03-26T05:30:48.949Z,98.00
2018-03-26T05:33:16.506Z,97.90
2018-03-26T05:35:44.074Z,97.90
2018-03-26T05:38:11.666Z,98.00
2018-03-26T05:40:39.190Z,98.00
2018-03-26T05:43:07.674Z,98.00
2018-03-26T05:45:35.141Z,97.70
2018-03-26T05:48:03.434Z,98.10
2018-03-26T05:50:31.059Z,98.00
2018-03-26T05:52:58.626Z,98.30
2018-03-26T05:55:26.286Z,98.50
2018-03-26T05:57:53.761Z,98.70
2018-03-26T06:00:22.031Z,98.10
2018-03-26T06:02:53.475Z,98.10
2018-03-26T06:05:21.715Z,98.00
2018-03-26T06:07:49.978Z,98.20
2018-03-26T06:10:17.509Z,98.20
2018-03-26T06:12:45.042Z,98.30
2018-03-26T06:15:13.313Z,97.70
2018-03-26T06:17:40.874Z,98.00
2018-03-26T06:20:08.438Z,98.20
2018-03-26T06:22:36.751Z,97.80
2018-03-26T06:25:04.242Z,97.80
2018-03-26T06:27:31.710Z,97.80
2018-03-26T06:29:59.173Z,97.60
2018-03-26T06:32:26.755Z,97.70
2018-03-26T06:34:55.071Z,98.20
2018-03-26T06:40:29.262Z,98.10
2018-03-26T06:42:57.021Z,98.20
2018-03-26T06:45:24.691Z,97.90
2018-03-26T06:47:53.062Z,98.00
2018-03-26T06:50:20.521Z,97.80
2018-03-26T06:52:47.985Z,97.80
2018-03-26T06:55:15.965Z,97.70
2018-03-26T06:57:44.330Z,97.60
2018-03-26T07:00:11.911Z,97.60
2018-03-26T07:02:40.273Z,97.50
2018-03-26T07:05:08.645Z,97.50
2018-03-26T07:07:36.210Z,97.70
2018-03-26T07:10:03.678Z,97.60
2018-03-26T07:12:31.942Z,98.00
2018-03-26T07:14:59.394Z,97.90
2018-03-26T07:17:27.182Z,97.80
2018-03-26T07:19:55.413Z,97.40
2018-03-26T07:22:24.640Z,97.30
2018-03-26T07:24:52.199Z,97.20
2018-03-26T07:27:19.761Z,96.80
2018-03-26T07:29:47.221Z,96.90
2018-03-26T07:32:14.691Z,96.90
2018-03-26T07:34:43.254Z,96.70
2018-03-26T07:37:10.761Z,96.70
2018-03-26T07:39:38.306Z,96.20
2018-03-26T07:42:06.757Z,96.50
2018-03-26T07:44:35.864Z,96.50
2018-03-26T07:47:03.715Z,96.30
2018-03-26T07:49:31.697Z,96.00
2018-03-26T07:52:00.737Z,95.20
2018-03-26T07:54:28.948Z,95.50
2018-03-26T07:56:56.417Z,95.50
2018-03-26T07:59:23.884Z,95.40
2018-03-26T08:01:51.437Z,95.40
2018-03-26T08:04:19.004Z,95.80
2018-03-26T08:06:46.640Z,95.80
2018-03-26T08:09:14.565Z,94.70
2018-03-26T08:11:42.046Z,95.00
2018-03-26T08:14:09.522Z,94.80
2018-03-26T08:16:36.996Z,94.50
2018-03-26T08:19:04.557Z,94.80
2018-03-26T08:21:32.321Z,94.90
2018-03-26T08:23:59.892Z,94.80
2018-03-26T08:26:27.450Z,94.90
2018-03-26T08:28:54.917Z,99.60
2018-03-26T08:31:23.190Z,84.70
2018-03-26T08:33:50.709Z,84.40
2018-03-26T08:36:18.179Z,85.30
2018-03-26T08:38:46.480Z,89.80
2018-03-26T08:41:14.719Z,90.30
2018-03-26T08:43:42.407Z,90.20
2018-03-26T08:46:09.876Z,91.40
2018-03-26T08:48:38.160Z,92.00
2018-03-26T08:51:06.425Z,91.60
2018-03-26T08:53:36.235Z,92.40
2018-03-26T08:56:03.749Z,92.10
2018-03-26T08:58:31.217Z,92.10
2018-03-26T09:00:58.685Z,91.40
2018-03-26T09:03:26.154Z,91.00
2018-03-26T09:05:53.661Z,91.30
2018-03-26T09:08:21.481Z,90.80
2018-03-26T09:10:48.954Z,90.60
2018-03-26T09:13:17.190Z,90.90
2018-03-26T09:15:44.666Z,90.60
2018-03-26T09:18:12.142Z,90.50
2018-03-26T09:20:44.071Z,89.50
2018-03-26T09:23:11.773Z,89.40
2018-03-26T09:25:40.237Z,87.80
2018-03-26T09:28:07.818Z,87.80
2018-03-26T09:30:36.287Z,83.60
2018-03-26T09:33:03.988Z,83.60
2018-03-26T09:35:31.514Z,85.40
2018-03-26T09:37:58.981Z,84.30
2018-03-26T09:40:27.214Z,83.90
2018-03-26T09:42:54.786Z,83.90
2018-03-26T09:45:22.686Z,83.20
2018-03-26T09:47:51.154Z,80.00
2018-03-26T09:50:18.819Z,79.90
2018-03-26T09:52:46.579Z,77.70
2018-03-26T09:55:14.143Z,80.70
2018-03-26T09:57:42.393Z,79.10
2018-03-26T10:00:09.852Z,79.00
2018-03-26T10:02:37.321Z,77.70
2018-03-26T10:05:04.798Z,77.50
2018-03-26T10:07:33.174Z,76.10
2018-03-26T10:10:01.406Z,76.20
2018-03-26T10:12:28.879Z,76.20
2018-03-26T10:14:56.457Z,74.90
2018-03-26T10:17:23.925Z,77.00
2018-03-26T10:19:52.158Z,76.00
2018-03-26T10:22:19.671Z,76.00
2018-03-26T10:24:47.901Z,76.70
2018-03-26T10:27:15.365Z,77.50
2018-03-26T10:29:43.238Z,77.40
2018-03-26T10:32:10.894Z,76.80
2018-03-26T10:34:38.424Z,74.50
2018-03-26T10:37:06.630Z,73.90
2018-03-26T10:39:34.098Z,73.80
2018-03-26T10:42:01.622Z,74.40
2018-03-26T10:44:29.364Z,74.80
2018-03-26T10:46:56.957Z,75.30
2018-03-26T10:49:24.872Z,75.50
2018-03-26T10:51:53.105Z,77.00
2018-03-26T10:54:20.594Z,76.80
2018-03-26T10:56:48.821Z,76.00
2018-03-26T10:59:16.389Z,75.10
2018-03-26T11:01:43.893Z,75.70
2018-03-26T11:04:12.214Z,76.50
2018-03-26T11:06:39.727Z,76.30
2018-03-26T11:09:07.494Z,75.50
2018-03-26T11:11:35.362Z,73.60
2018-03-26T11:14:03.242Z,73.80
2018-03-26T11:16:31.554Z,74.20
2018-03-26T11:18:59.229Z,74.20
2018-03-26T11:21:27.177Z,71.10
2018-03-26T11:23:54.947Z,69.20
2018-03-26T11:26:22.424Z,70.30
2018-03-26T11:28:50.054Z,67.60
2018-03-26T11:31:17.609Z,66.80
2018-03-26T11:33:45.155Z,67.10
2018-03-26T11:36:14.370Z,68.70
2018-03-26T11:38:41.855Z,68.50
2018-03-26T11:41:09.340Z,70.30
2018-03-26T11:43:36.846Z,69.80
2018-03-26T11:46:04.377Z,70.40
2018-03-26T11:48:31.942Z,71.10
2018-03-26T11:50:59.525Z,71.10
2018-03-26T11:53:27.370Z,70.40
2018-03-26T11:55:55.722Z,61.80
2018-03-26T11:58:23.197Z,61.00
2018-03-26T12:00:50.678Z,61.10
2018-03-26T12:03:18.998Z,60.70
2018-03-26T12:05:46.465Z,60.70
2018-03-26T12:08:15.087Z,59.30
2018-03-26T12:10:43.359Z,59.80
2018-03-26T12:13:10.999Z,59.70
2018-03-26T12:15:38.677Z,61.00
2018-03-26T12:18:06.222Z,62.50
2018-03-26T12:20:45.892Z,64.70
2018-03-26T12:23:26.151Z,65.70
2018-03-26T12:25:56.126Z,62.60
2018-03-26T12:28:35.834Z,62.50
2018-03-26T12:31:03.399Z,59.30
2018-03-26T12:33:30.916Z,61.50
2018-03-26T12:35:59.311Z,59.90
2018-03-26T12:38:27.686Z,59.10
2018-03-26T12:40:56.874Z,59.10
2018-03-26T12:43:24.669Z,59.00
2018-03-26T12:46:03.871Z,60.50
2018-03-26T12:48:31.841Z,65.90
2018-03-26T12:51:12.155Z,64.60
2018-03-26T12:53:39.659Z,64.30
2018-03-26T12:56:07.238Z,58.50
2018-03-26T12:58:49.217Z,55.00
2018-03-26T13:01:29.485Z,55.00
2018-03-26T13:03:57.858Z,55.90
2018-03-26T13:06:25.325Z,55.60
2018-03-26T13:08:53.648Z,56.10
2018-03-26T13:11:21.121Z,55.40
2018-03-26T13:13:48.802Z,57.00
2018-03-26T13:16:17.028Z,59.50
2018-03-26T13:18:44.498Z,59.40
2018-03-26T13:21:11.975Z,57.80
2018-03-26T13:23:39.467Z,58.00
2018-03-26T13:26:07.746Z,59.30
2018-03-26T13:28:35.993Z,59.90
2018-03-26T13:31:03.691Z,60.40
2018-03-26T13:33:31.251Z,62.30
2018-03-26T13:35:59.573Z,64.00
2018-03-26T13:38:27.071Z,63.20
2018-03-26T13:40:55.358Z,63.20
2018-03-26T13:43:22.950Z,63.10
2018-03-26T13:45:50.422Z,63.80
2018-03-26T13:48:18.010Z,61.60
2018-03-26T13:50:45.545Z,60.00
2018-03-26T13:53:13.145Z,59.90
2018-03-26T13:55:41.385Z,61.90
2018-03-26T13:58:08.857Z,61.80
2018-03-26T14:00:36.409Z,61.30
2018-03-26T14:03:04.040Z,62.40
2018-03-26T14:05:31.891Z,60.60
2018-03-26T14:08:00.462Z,61.20
2018-03-26T14:10:40.626Z,62.10
2018-03-26T14:13:21.069Z,67.90
2018-03-26T14:16:01.776Z,75.80
2018-03-26T14:18:29.329Z,75.00
2018-03-26T14:20:56.853Z,77.80
2018-03-26T14:23:24.332Z,83.50
2018-03-26T14:25:52.632Z,88.80
2018-03-26T14:28:20.132Z,88.70
2018-03-26T14:30:47.614Z,90.60
2018-03-26T14:33:16.194Z,82.10
2018-03-26T14:35:44.465Z,88.10
2018-03-26T14:38:12.026Z,87.90
2018-03-26T14:40:40.261Z,91.30
2018-03-26T14:43:07.740Z,91.40
2018-03-26T14:45:36.234Z,90.70
2018-03-26T14:48:03.735Z,90.70
2018-03-26T14:50:31.211Z,87.80
2018-03-26T14:52:58.714Z,86.00
2018-03-26T14:55:26.215Z,90.20
2018-03-26T14:57:53.930Z,91.50
2018-03-26T15:00:21.409Z,92.30
2018-03-26T15:02:49.674Z,93.00
2018-03-26T15:05:17.938Z,91.90
2018-03-26T15:07:45.397Z,91.60
2018-03-26T15:10:12.990Z,90.50
2018-03-26T15:12:40.515Z,91.70
2018-03-26T15:15:08.087Z,91.60
2018-03-26T15:17:36.461Z,92.10
2018-03-26T15:20:04.725Z,94.10
2018-03-26T15:22:32.534Z,94.10
2018-03-26T15:25:00.058Z,94.50
2018-03-26T15:27:28.363Z,93.30
2018-03-26T15:29:55.760Z,93.30
2018-03-26T15:32:23.233Z,92.10
2018-03-26T15:34:50.943Z,92.60
2018-03-26T15:37:18.457Z,92.30
2018-03-26T15:39:45.926Z,91.90
2018-03-26T15:42:14.158Z,91.20
2018-03-26T15:44:41.628Z,91.20
2018-03-26T15:47:09.094Z,90.30
2018-03-26T15:49:36.699Z,90.00
2018-03-26T15:52:04.228Z,90.60
2018-03-26T15:54:32.910Z,91.20
2018-03-26T15:57:00.381Z,91.10
2018-03-26T15:59:28.755Z,92.60
2018-03-26T16:01:56.613Z,92.20
2018-03-26T16:04:24.173Z,92.20
2018-03-26T16:06:51.634Z,92.70
2018-03-26T16:09:20.123Z,92.10
2018-03-26T16:11:48.363Z,91.70
2018-03-26T16:14:16.597Z,91.40
2018-03-26T16:16:44.093Z,91.40
2018-03-26T16:19:11.566Z,91.10
2018-03-26T16:21:39.038Z,91.10
2018-03-26T16:24:07.300Z,93.30
2018-03-26T16:26:34.762Z,93.10
2018-03-26T16:29:02.239Z,95.40
2018-03-26T16:31:30.479Z,92.60
2018-03-26T16:33:58.383Z,92.60
2018-03-26T16:36:26.737Z,92.70
2018-03-26T16:38:54.410Z,92.60
2018-03-26T16:41:34.089Z,90.70
2018-03-26T16:44:01.814Z,91.40
2018-03-26T16:46:29.484Z,88.60
2018-03-26T16:48:57.982Z,90.40
2018-03-26T16:51:26.442Z,92.20
2018-03-26T16:53:54.015Z,91.80
2018-03-26T16:56:22.282Z,83.90
2018-03-26T16:58:50.786Z,81.20
2018-03-26T17:01:18.427Z,81.20
2018-03-26T17:03:46.778Z,76.80
2018-03-26T17:06:14.778Z,76.90
2018-03-26T17:08:43.150Z,82.70
2018-03-26T17:11:11.777Z,82.20
2018-03-26T17:13:39.694Z,81.70
2018-03-26T17:16:07.419Z,81.50
2018-03-26T17:18:34.895Z,79.10
2018-03-26T17:21:02.502Z,75.90
2018-03-26T17:23:30.738Z,79.20
2018-03-26T17:25:58.631Z,79.10
2018-03-26T17:28:26.900Z,81.60
2018-03-26T17:30:54.657Z,81.30
2018-03-26T17:33:22.226Z,78.70
2018-03-26T17:35:50.462Z,76.70
2018-03-26T17:38:18.167Z,76.50
2018-03-26T17:40:46.439Z,76.70
2018-03-26T17:43:13.999Z,76.70
2018-03-26T17:45:42.681Z,80.10
2018-03-26T17:48:10.255Z,80.10
2018-03-26T17:50:38.825Z,78.40
2018-03-26T17:53:06.304Z,78.50
2018-03-26T17:55:34.562Z,80.70
2018-03-26T17:58:02.427Z,80.70
2018-03-26T18:00:29.889Z,83.40
2018-03-26T18:02:58.138Z,81.20
2018-03-26T18:05:26.249Z,81.10
2018-03-26T18:07:54.491Z,82.50
2018-03-26T18:10:22.536Z,82.50
2018-03-26T18:12:51.377Z,82.50
2018-03-26T18:15:18.942Z,82.50
2018-03-26T18:17:46.511Z,81.70
2018-03-26T18:20:15.187Z,82.40
2018-03-26T18:22:42.679Z,82.40
2018-03-26T18:25:10.150Z,81.00
2018-03-26T18:27:37.702Z,80.40
2018-03-26T18:30:05.318Z,81.10
2018-03-26T18:32:32.985Z,79.80
2018-03-26T18:35:01.134Z,81.30
2018-03-26T18:37:28.608Z,80.80
2018-03-26T18:39:56.074Z,81.60
2018-03-26T18:42:23.981Z,83.10
2018-03-26T18:44:52.243Z,82.50
2018-03-26T18:47:20.509Z,82.70
2018-03-26T18:49:48.422Z,82.60
2018-03-26T18:52:15.985Z,85.10
2018-03-26T18:54:43.454Z,84.50
2018-03-26T18:57:11.261Z,84.60
2018-03-26T18:59:39.883Z,85.70
2018-03-26T19:02:07.559Z,85.80
2018-03-26T19:04:35.271Z,87.40
2018-03-26T19:07:03.858Z,87.30
2018-03-26T19:09:31.514Z,87.10
2018-03-26T19:11:58.983Z,89.50
2018-03-26T19:14:27.365Z,90.00
2018-03-26T19:16:56.033Z,90.30
2018-03-26T19:19:23.815Z,90.20
2018-03-26T19:21:52.062Z,90.30
2018-03-26T19:24:20.245Z,90.30
2018-03-26T19:26:47.809Z,90.10
2018-03-26T19:29:15.468Z,89.90
2018-03-26T19:31:43.242Z,90.00
2018-03-26T19:34:10.902Z,90.30
2018-03-26T19:36:38.469Z,90.70
2018-03-26T19:39:06.586Z,91.50
2018-03-26T19:41:34.097Z,92.70
2018-03-26T19:44:01.772Z,93.10
2018-03-26T19:46:30.250Z,93.30
2018-03-26T19:48:58.513Z,92.20
2018-03-26T19:51:26.086Z,92.10
2018-03-26T19:53:54.413Z,93.00
2018-03-26T19:56:22.114Z,92.90
2018-03-26T19:58:49.679Z,92.40
2018-03-26T20:01:17.399Z,93.00
2018-03-26T20:03:45.107Z,93.50
2018-03-26T20:06:12.861Z,93.90
2018-03-26T20:08:40.430Z,94.10
2018-03-26T20:11:08.312Z,94.30
2018-03-26T20:13:36.542Z,93.80
2018-03-26T20:16:04.023Z,93.80
2018-03-26T20:18:31.609Z,94.30
2018-03-26T20:20:59.833Z,93.80
2018-03-26T20:23:27.310Z,93.80
2018-03-26T20:25:54.779Z,94.50
2018-03-26T20:28:22.279Z,94.20
2018-03-26T20:30:49.799Z,94.50
2018-03-26T20:33:18.173Z,95.10
2018-03-26T20:35:46.578Z,95.10
2018-03-26T20:38:14.881Z,95.00
2018-03-26T20:40:43.102Z,95.40
2018-03-26T20:43:10.576Z,95.40
2018-03-26T20:45:38.949Z,94.90
2018-03-26T20:48:07.221Z,94.50
2018-03-26T20:50:35.494Z,94.10
2018-03-26T20:53:03.122Z,94.10
2018-03-26T20:55:30.722Z,94.10
2018-03-26T20:57:58.990Z,93.70
2018-03-26T21:00:26.457Z,93.70
2018-03-26T21:02:54.729Z,94.80
2018-03-26T21:05:23.078Z,94.80
2018-03-26T21:07:51.170Z,94.80
2018-03-26T21:10:18.725Z,94.80
2018-03-26T21:12:46.291Z,94.90
2018-03-26T21:15:13.855Z,94.80
2018-03-26T21:17:42.029Z,94.60
2018-03-26T21:20:09.598Z,95.10
2018-03-26T21:22:37.863Z,95.30
2018-03-26T21:25:06.138Z,95.60
2018-03-26T21:27:33.621Z,95.50
2018-03-26T21:30:01.107Z,95.20
2018-03-26T21:32:28.579Z,95.20
2018-03-26T21:34:56.924Z,95.20
2018-03-26T21:37:24.426Z,95.50
2018-03-26T21:39:52.001Z,95.40
2018-03-26T21:42:19.564Z,95.50
2018-03-26T21:44:47.042Z,96.40
2018-03-26T21:47:15.298Z,96.10
2018-03-26T21:49:43.390Z,96.10
2018-03-26T21:52:11.777Z,96.10
2018-03-26T21:54:39.281Z,96.10
2018-03-26T21:57:06.765Z,96.70
2018-03-26T21:59:34.286Z,96.10
2018-03-26T22:02:01.824Z,96.00
2018-03-26T22:04:29.492Z,95.90
2018-03-26T22:06:57.726Z,95.80
2018-03-26T22:09:25.282Z,95.80
2018-03-26T22:11:52.846Z,95.80
2018-03-26T22:14:21.143Z,95.20
2018-03-26T22:16:48.622Z,95.50
2018-03-26T22:19:16.133Z,95.40
2018-03-26T22:21:43.702Z,95.60
2018-03-26T22:24:11.933Z,95.70
2018-03-26T22:26:39.579Z,95.60
2018-03-26T22:29:07.051Z,95.70
2018-03-26T22:31:34.555Z,95.80
2018-03-26T22:34:03.134Z,96.10
2018-03-26T22:36:31.402Z,96.00
2018-03-26T22:38:59.168Z,95.90
2018-03-26T22:41:27.436Z,96.30
2018-03-26T22:43:55.011Z,96.00
2018-03-26T22:46:23.242Z,96.40
2018-03-26T22:48:50.711Z,96.30
2018-03-26T22:51:18.263Z,96.00
2018-03-26T22:53:45.749Z,96.10
2018-03-26T22:56:13.978Z,96.40
2018-03-26T22:58:41.455Z,96.10
2018-03-26T23:01:08.930Z,95.70
2018-03-26T23:03:36.705Z,95.10
2018-03-26T23:06:04.199Z,95.40
2018-03-26T23:08:31.722Z,95.40
2018-03-26T23:10:59.964Z,95.30
2018-03-26T23:13:27.501Z,95.20
2018-03-26T23:15:54.995Z,95.60
2018-03-26T23:18:22.576Z,95.40
2018-03-26T23:20:50.434Z,95.80
2018-03-26T23:23:17.959Z,95.50
2018-03-26T23:25:45.597Z,95.60
2018-03-26T23:28:13.114Z,95.60
2018-03-26T23:30:40.674Z,95.50
2018-03-26T23:33:08.541Z,95.20
2018-03-26T23:35:36.097Z,95.30
2018-03-26T23:38:03.654Z,95.10
2018-03-26T23:40:31.214Z,94.70
2018-03-26T23:42:58.783Z,94.90
2018-03-26T23:45:27.067Z,94.70
2018-03-26T23:47:55.302Z,94.70
2018-03-26T23:50:22.781Z,94.60
2018-03-26T23:52:50.249Z,94.70
2018-03-26T23:55:18.569Z,94.80
2018-03-26T23:57:46.043Z,94.80
